Time;durP1;ratioP1;P1;durP2;ratioP2;P2;SDS_P1;SDS_P2;PMS_P1;PMS_P2;Temp;Humidity;BMP_temperature;BMP_pressure;BME280_temperature;BME280_humidity;BME280_pressure;Samples;Min_cycle;Max_cycle;Signal;HPM_P1;HPM_P2
2023/05/21 00:00:47;;;;;;;19.30;15.82;;;17.10;99.90;;;;;;5007305;28;20252;-76
2023/05/21 00:03:14;;;;;;;18.00;16.13;;;17.10;99.90;;;;;;5007794;28;20260;-76
2023/05/21 00:05:40;;;;;;;21.23;15.38;;;17.10;99.90;;;;;;5008565;28;20213;-76
2023/05/21 00:08:06;;;;;;;18.95;15.82;;;17.10;99.90;;;;;;5008578;28;20235;-77
2023/05/21 00:10:32;;;;;;;20.65;15.60;;;17.10;99.90;;;;;;5005815;28;20579;-76
2023/05/21 00:12:57;;;;;;;19.48;15.55;;;17.00;99.90;;;;;;5002506;28;20749;-76
2023/05/21 00:15:23;;;;;;;20.08;15.38;;;17.00;99.90;;;;;;5008819;28;20231;-77
2023/05/21 00:17:49;;;;;;;21.88;17.73;;;17.00;99.90;;;;;;5008481;28;20684;-77
2023/05/21 00:20:15;;;;;;;23.35;16.50;;;17.10;99.90;;;;;;5006462;28;20312;-77
2023/05/21 00:22:41;;;;;;;19.52;15.88;;;17.00;99.90;;;;;;5003992;28;20210;-76
2023/05/21 00:25:07;;;;;;;17.90;15.77;;;17.00;99.90;;;;;;5005611;28;20829;-76
2023/05/21 00:27:33;;;;;;;23.38;17.45;;;17.00;99.90;;;;;;5002427;28;20228;-75
2023/05/21 00:29:59;;;;;;;20.23;16.63;;;17.00;99.90;;;;;;5003049;28;20181;-77
2023/05/21 00:32:24;;;;;;;20.10;16.75;;;17.00;99.90;;;;;;5011415;28;20213;-77
2023/05/21 00:34:50;;;;;;;21.13;17.60;;;17.00;99.90;;;;;;5012112;28;20283;-76
2023/05/21 00:37:16;;;;;;;23.02;16.90;;;17.00;99.90;;;;;;5010627;28;20259;-77
2023/05/21 00:39:42;;;;;;;23.15;17.45;;;17.00;99.90;;;;;;5011112;28;20216;-77
2023/05/21 00:42:07;;;;;;;20.77;18.13;;;17.00;99.90;;;;;;5010049;28;20189;-76
2023/05/21 00:44:34;;;;;;;21.88;17.95;;;17.00;99.90;;;;;;5008893;28;20613;-76
2023/05/21 00:49:35;;;;;;;21.38;17.95;;;16.90;99.90;;;;;;5028106;28;20672;-72
2023/05/21 00:52:01;;;;;;;22.02;16.75;;;16.90;99.90;;;;;;5029502;28;20240;-72
2023/05/21 00:54:27;;;;;;;18.98;16.63;;;16.80;99.90;;;;;;5026233;28;20227;-72
2023/05/21 00:56:54;;;;;;;21.10;17.38;;;16.70;99.90;;;;;;5026136;28;20169;-72
2023/05/21 00:59:20;;;;;;;24.73;16.92;;;16.70;99.90;;;;;;5025221;28;20216;-71
2023/05/21 01:01:52;;;;;;;22.00;17.33;;;16.60;99.90;;;;;;5020866;28;20697;-71
2023/05/21 01:04:19;;;;;;;22.23;17.65;;;16.60;99.90;;;;;;5021254;28;20200;-70
2023/05/21 01:06:45;;;;;;;21.45;16.88;;;16.60;99.90;;;;;;5024098;28;20292;-71
2023/05/21 01:09:10;;;;;;;21.23;17.02;;;16.60;99.90;;;;;;5019623;28;20755;-71
2023/05/21 01:11:48;;;;;;;22.10;17.05;;;16.60;99.90;;;;;;5030801;28;20590;-71
2023/05/21 01:14:16;;;;;;;21.85;18.15;;;16.60;99.90;;;;;;5023262;28;20563;-71
2023/05/21 01:16:45;;;;;;;22.20;17.20;;;16.60;99.90;;;;;;5027280;28;20232;-71
2023/05/21 01:19:20;;;;;;;21.98;17.23;;;16.60;99.90;;;;;;5026254;28;20247;-72
2023/05/21 01:21:51;;;;;;;27.00;17.23;;;16.60;99.90;;;;;;5023915;28;20274;-72
2023/05/21 01:24:17;;;;;;;25.38;18.33;;;16.60;99.90;;;;;;5028036;28;20212;-72
2023/05/21 01:26:45;;;;;;;22.42;16.73;;;16.60;99.90;;;;;;5026816;28;20165;-72
2023/05/21 01:29:12;;;;;;;19.45;16.70;;;16.60;99.90;;;;;;5021986;28;20638;-71
2023/05/21 01:31:54;;;;;;;22.65;17.55;;;16.50;99.90;;;;;;5026070;28;20563;-72
2023/05/21 01:34:24;;;;;;;20.92;17.45;;;16.50;99.90;;;;;;5028016;28;20200;-71
2023/05/21 01:36:59;;;;;;;24.92;17.52;;;16.50;99.90;;;;;;5023173;28;20263;-71
2023/05/21 01:39:35;;;;;;;27.02;18.63;;;16.50;99.90;;;;;;5029531;28;20207;-71
2023/05/21 01:42:04;;;;;;;26.85;18.38;;;16.50;99.90;;;;;;5022627;28;20204;-71
2023/05/21 01:44:32;;;;;;;21.35;17.85;;;16.50;99.90;;;;;;5022725;28;20262;-72
2023/05/21 01:46:59;;;;;;;22.15;17.45;;;16.50;99.90;;;;;;5021151;28;20689;-72
2023/05/21 01:49:25;;;;;;;21.63;16.80;;;16.50;99.90;;;;;;5026129;28;20209;-71
2023/05/21 01:51:50;;;;;;;23.48;18.13;;;16.50;99.90;;;;;;5025403;28;20298;-71
2023/05/21 01:54:16;;;;;;;21.45;17.73;;;16.50;99.90;;;;;;5023120;28;20230;-71
2023/05/21 01:56:42;;;;;;;21.10;18.67;;;16.50;99.90;;;;;;5030538;28;20164;-70
2023/05/21 01:59:07;;;;;;;25.67;18.40;;;16.50;99.90;;;;;;5021877;28;20213;-71
2023/05/21 02:01:33;;;;;;;23.75;17.75;;;16.50;99.90;;;;;;5025862;28;20200;-69
2023/05/21 02:03:59;;;;;;;23.23;19.02;;;16.40;99.90;;;;;;5025305;28;20723;-71
2023/05/21 02:06:25;;;;;;;27.15;19.85;;;16.40;99.90;;;;;;5028809;28;20180;-72
2023/05/21 02:08:50;;;;;;;22.20;18.88;;;16.40;99.90;;;;;;5025102;28;20292;-71
2023/05/21 02:11:16;;;;;;;22.10;18.60;;;16.40;99.90;;;;;;5026812;28;20295;-71
2023/05/21 02:13:42;;;;;;;22.20;18.73;;;16.40;99.90;;;;;;5021825;28;20204;-72
2023/05/21 02:16:13;;;;;;;22.92;20.13;;;16.40;99.90;;;;;;5021380;28;20208;-71
2023/05/21 02:18:45;;;;;;;22.00;19.55;;;16.30;99.90;;;;;;5027124;28;20229;-71
2023/05/21 02:21:11;;;;;;;25.73;19.50;;;16.40;99.90;;;;;;5023645;28;20958;-72
2023/05/21 02:23:37;;;;;;;25.80;19.73;;;16.30;99.90;;;;;;5019317;28;20235;-71
2023/05/21 02:26:03;;;;;;;23.52;19.38;;;16.30;99.90;;;;;;5022653;28;20209;-71
2023/05/21 02:28:29;;;;;;;25.10;18.80;;;16.30;99.90;;;;;;5024011;28;20296;-72
2023/05/21 02:30:55;;;;;;;27.17;20.10;;;16.30;99.90;;;;;;5024954;28;20598;-72
2023/05/21 02:33:21;;;;;;;23.15;18.95;;;16.20;99.90;;;;;;5021788;28;20205;-71
2023/05/21 02:35:47;;;;;;;24.75;19.30;;;16.20;99.90;;;;;;5028496;28;20168;-71
2023/05/21 02:38:13;;;;;;;26.90;19.65;;;16.20;99.90;;;;;;5024081;28;20710;-71
2023/05/21 02:40:39;;;;;;;22.77;19.45;;;16.20;99.90;;;;;;5023216;28;20223;-72
2023/05/21 02:43:05;;;;;;;25.70;20.13;;;16.10;99.90;;;;;;5025730;28;20283;-71
2023/05/21 02:45:30;;;;;;;25.13;21.00;;;16.10;99.90;;;;;;5025104;28;20267;-72
2023/05/21 02:47:56;;;;;;;23.88;20.75;;;16.10;99.90;;;;;;5026768;28;20274;-72
2023/05/21 02:50:22;;;;;;;23.30;20.77;;;16.10;99.90;;;;;;5022381;28;20220;-72
2023/05/21 02:52:48;;;;;;;24.48;21.85;;;16.10;99.90;;;;;;5022006;28;20216;-72
2023/05/21 02:55:13;;;;;;;25.55;21.02;;;16.10;99.90;;;;;;5021771;28;20734;-71
2023/05/21 02:57:39;;;;;;;26.80;19.92;;;16.10;99.90;;;;;;5024568;28;20219;-71
2023/05/21 03:00:07;;;;;;;26.02;21.77;;;16.00;99.90;;;;;;5028471;28;20185;-71
2023/05/21 03:02:32;;;;;;;26.92;21.70;;;16.00;99.90;;;;;;5021029;28;20311;-70
2023/05/21 03:04:59;;;;;;;24.60;20.67;;;16.00;99.90;;;;;;5022816;28;20287;-72
2023/05/21 03:07:25;;;;;;;28.05;22.70;;;15.90;99.90;;;;;;5029679;28;20238;-71
2023/05/21 03:09:50;;;;;;;24.88;21.13;;;15.90;99.90;;;;;;5025341;28;20290;-72
2023/05/21 03:12:16;;;;;;;27.90;22.45;;;15.90;99.90;;;;;;5023980;28;20673;-71
2023/05/21 03:14:42;;;;;;;27.05;21.60;;;15.90;99.90;;;;;;5028198;28;20176;-71
2023/05/21 03:17:12;;;;;;;27.10;22.58;;;16.00;99.90;;;;;;5024405;28;20712;-71
2023/05/21 03:19:40;;;;;;;25.23;22.45;;;15.90;99.90;;;;;;5026905;28;20752;-71
2023/05/21 03:22:06;;;;;;;25.52;21.13;;;15.90;99.90;;;;;;5025527;28;20208;-72
2023/05/21 03:24:32;;;;;;;28.05;21.83;;;16.00;99.90;;;;;;5026378;28;20184;-70
2023/05/21 03:27:00;;;;;;;27.10;23.02;;;16.00;99.90;;;;;;5026561;28;20271;-71
2023/05/21 03:29:26;;;;;;;28.67;24.13;;;16.00;99.90;;;;;;5024634;28;20204;-72
2023/05/21 03:31:52;;;;;;;104.15;78.80;;;16.10;99.90;;;;;;5021068;28;20216;-72
2023/05/21 03:34:18;;;;;;;24.95;21.98;;;16.10;99.90;;;;;;5027178;28;20208;-72
2023/05/21 03:36:45;;;;;;;26.45;22.85;;;16.10;99.90;;;;;;5021231;28;20254;-72
2023/05/21 03:39:11;;;;;;;24.27;21.35;;;16.10;99.90;;;;;;5020839;28;20743;-71
2023/05/21 03:41:37;;;;;;;26.08;20.50;;;16.20;99.90;;;;;;5020867;28;20215;-73
2023/05/21 03:44:02;;;;;;;28.50;21.67;;;16.30;99.90;;;;;;5021064;28;20208;-73
2023/05/21 03:46:28;;;;;;;25.55;21.67;;;16.40;99.90;;;;;;5022389;28;20204;-74
2023/05/21 03:48:54;;;;;;;24.13;21.50;;;16.50;99.90;;;;;;5023977;28;20223;-74
2023/05/21 03:51:19;;;;;;;28.63;21.75;;;16.60;99.90;;;;;;5028256;28;20180;-73
2023/05/21 03:53:45;;;;;;;24.10;20.70;;;16.80;99.90;;;;;;5028175;28;20173;-74
2023/05/21 03:56:11;;;;;;;22.42;19.38;;;16.90;99.90;;;;;;5028858;28;20211;-73
2023/05/21 03:58:37;;;;;;;24.40;21.73;;;17.10;99.90;;;;;;5027217;28;20951;-73
2023/05/21 04:01:03;;;;;;;23.38;20.83;;;17.20;99.90;;;;;;5024948;28;20652;-73
2023/05/21 04:03:31;;;;;;;24.20;19.90;;;17.20;99.90;;;;;;5025317;28;20602;-73
2023/05/21 04:05:56;;;;;;;24.05;20.85;;;17.20;99.90;;;;;;5024774;28;20172;-73
2023/05/21 04:08:22;;;;;;;25.83;20.25;;;17.20;99.90;;;;;;5023717;28;20216;-73
2023/05/21 04:10:48;;;;;;;24.17;19.13;;;17.20;99.90;;;;;;5026078;28;20291;-73
2023/05/21 04:13:13;;;;;;;27.95;19.65;;;17.60;99.90;;;;;;5023446;28;20224;-74
2023/05/21 04:15:39;;;;;;;23.48;21.05;;;18.10;99.90;;;;;;5028887;28;20208;-73
2023/05/21 04:18:06;;;;;;;23.48;18.88;;;18.40;99.90;;;;;;5022348;28;20216;-73
2023/05/21 04:20:31;;;;;;;24.20;19.55;;;18.70;99.90;;;;;;5025084;28;20746;-74
2023/05/21 04:22:57;;;;;;;22.20;18.90;;;18.70;99.90;;;;;;5019146;28;20292;-73
2023/05/21 04:25:24;;;;;;;21.42;19.13;;;18.90;99.90;;;;;;5027524;28;20208;-72
2023/05/21 04:27:49;;;;;;;22.83;20.27;;;19.10;99.90;;;;;;5031430;28;20274;-72
2023/05/21 04:30:15;;;;;;;20.92;18.40;;;19.30;99.90;;;;;;5027509;28;20181;-72
2023/05/21 04:32:44;;;;;;;24.50;18.25;;;19.60;99.90;;;;;;5029552;28;20212;-71
2023/05/21 04:35:11;;;;;;;31.42;19.65;;;19.90;99.90;;;;;;5024545;28;20208;-72
2023/05/21 04:37:40;;;;;;;21.42;18.80;;;19.90;99.90;;;;;;5023633;28;20216;-72
2023/05/21 04:40:08;;;;;;;24.00;18.77;;;20.20;99.90;;;;;;5021429;28;20263;-72
2023/05/21 04:42:33;;;;;;;21.75;18.50;;;20.30;99.90;;;;;;5025203;28;20239;-71
2023/05/21 04:44:59;;;;;;;20.58;18.13;;;20.20;99.90;;;;;;5022523;28;20212;-72
2023/05/21 04:47:25;;;;;;;19.30;17.40;;;20.40;99.90;;;;;;5021515;28;20214;-73
2023/05/21 04:49:52;;;;;;;23.63;17.60;;;20.50;99.90;;;;;;5022462;28;20587;-71
2023/05/21 04:52:17;;;;;;;24.95;18.17;;;20.90;99.90;;;;;;5021711;28;20638;-72
2023/05/21 04:54:44;;;;;;;20.48;18.30;;;20.80;99.90;;;;;;5022813;28;20208;-72
2023/05/21 04:57:10;;;;;;;19.60;17.58;;;21.00;99.90;;;;;;5022873;28;20219;-72
2023/05/21 04:59:35;;;;;;;20.20;17.98;;;20.90;99.90;;;;;;5023472;28;20204;-72
2023/05/21 05:02:01;;;;;;;21.02;18.92;;;21.10;99.90;;;;;;5024351;28;20209;-71
2023/05/21 05:04:27;;;;;;;20.30;17.73;;;21.20;99.90;;;;;;5028287;28;20196;-72
2023/05/21 05:06:52;;;;;;;23.30;19.08;;;21.40;99.90;;;;;;5027830;28;20208;-72
2023/05/21 05:09:20;;;;;;;19.77;17.80;;;21.30;99.90;;;;;;5020600;28;20201;-72
2023/05/21 05:11:46;;;;;;;20.60;18.50;;;21.20;99.90;;;;;;5024111;28;20199;-71
2023/05/21 05:14:11;;;;;;;22.30;19.02;;;20.90;99.90;;;;;;5022260;28;20209;-72
2023/05/21 05:16:37;;;;;;;20.60;18.40;;;20.90;99.90;;;;;;5023850;28;20288;-71
2023/05/21 05:19:02;;;;;;;20.67;18.48;;;20.90;99.90;;;;;;5021322;28;20747;-71
2023/05/21 05:21:28;;;;;;;19.92;17.83;;;21.20;99.90;;;;;;5028826;28;20199;-72
2023/05/21 05:23:53;;;;;;;21.50;18.05;;;21.00;99.90;;;;;;5022012;28;20216;-72
2023/05/21 05:26:20;;;;;;;19.95;17.92;;;21.10;99.90;;;;;;5022496;28;20291;-72
2023/05/21 05:28:46;;;;;;;23.13;18.90;;;20.80;99.90;;;;;;5022500;28;20710;-71
2023/05/21 05:31:11;;;;;;;21.00;18.67;;;20.60;99.90;;;;;;5019605;28;20217;-72
2023/05/21 05:33:37;;;;;;;24.00;19.42;;;20.60;99.90;;;;;;5024950;28;20586;-71
2023/05/21 05:36:03;;;;;;;19.90;17.88;;;20.60;99.90;;;;;;5023481;28;20173;-70
2023/05/21 05:38:28;;;;;;;20.27;18.08;;;20.40;99.90;;;;;;5023525;28;20295;-73
2023/05/21 05:40:54;;;;;;;20.92;18.77;;;20.60;99.90;;;;;;5023444;28;20206;-73
2023/05/21 05:43:20;;;;;;;22.92;19.40;;;20.70;99.90;;;;;;5023370;28;20221;-72
2023/05/21 05:45:45;;;;;;;22.73;18.70;;;20.80;99.90;;;;;;5022361;28;20232;-72
2023/05/21 05:48:11;;;;;;;21.63;16.88;;;20.50;99.90;;;;;;5027567;28;20219;-73
2023/05/21 05:50:37;;;;;;;20.55;17.88;;;20.60;99.90;;;;;;5021649;28;20840;-73
2023/05/21 05:53:03;;;;;;;19.45;17.45;;;20.60;99.90;;;;;;5023610;28;20216;-73
2023/05/21 05:55:28;;;;;;;20.05;17.92;;;20.70;99.90;;;;;;5023046;28;20232;-73
2023/05/21 05:57:54;;;;;;;21.35;17.48;;;20.60;99.90;;;;;;5024398;28;20219;-72
2023/05/21 06:00:19;;;;;;;22.33;18.25;;;20.70;99.90;;;;;;5019721;28;20263;-73
2023/05/21 06:02:46;;;;;;;20.58;17.20;;;21.00;99.90;;;;;;5025048;28;20180;-73
2023/05/21 06:05:12;;;;;;;20.42;16.98;;;21.00;99.90;;;;;;5022683;28;20201;-72
2023/05/21 06:07:39;;;;;;;20.60;17.30;;;20.90;99.90;;;;;;5025927;28;20215;-72
2023/05/21 06:10:08;;;;;;;20.80;17.73;;;20.80;99.90;;;;;;5020135;28;20217;-72
2023/05/21 06:12:34;;;;;;;19.35;17.35;;;20.60;99.90;;;;;;5022007;28;20216;-72
2023/05/21 06:15:00;;;;;;;20.50;17.85;;;20.60;99.90;;;;;;5029672;28;20670;-72
2023/05/21 06:17:26;;;;;;;22.42;18.02;;;20.40;99.90;;;;;;5029108;28;20589;-72
2023/05/21 06:19:51;;;;;;;19.95;17.65;;;20.20;99.90;;;;;;5022792;28;20307;-72
2023/05/21 06:22:17;;;;;;;22.13;17.92;;;20.10;99.90;;;;;;5022087;28;20271;-73
2023/05/21 06:24:43;;;;;;;19.90;17.90;;;19.80;99.90;;;;;;5020678;28;20695;-72
2023/05/21 06:27:08;;;;;;;23.27;18.00;;;19.80;99.90;;;;;;5024122;28;20176;-72
2023/05/21 06:29:34;;;;;;;20.92;17.13;;;19.80;99.90;;;;;;5023126;28;20209;-73
2023/05/21 06:32:00;;;;;;;21.40;17.30;;;19.70;99.90;;;;;;5021147;28;20213;-72
2023/05/21 06:34:27;;;;;;;21.95;17.38;;;19.70;99.90;;;;;;5023003;28;20699;-72
2023/05/21 06:36:53;;;;;;;19.17;17.23;;;19.70;99.90;;;;;;5021946;28;20234;-72
2023/05/21 06:39:19;;;;;;;21.50;17.88;;;19.60;99.90;;;;;;5020467;28;20260;-73
2023/05/21 06:41:44;;;;;;;19.27;17.17;;;19.60;99.90;;;;;;5023023;28;20662;-73
2023/05/21 06:44:10;;;;;;;25.23;22.25;;;19.60;99.90;;;;;;5027345;28;20220;-71
2023/05/21 06:46:35;;;;;;;27.15;21.27;;;19.60;99.90;;;;;;5028350;28;20204;-72
2023/05/21 06:49:01;;;;;;;44.53;36.90;;;19.80;99.90;;;;;;5056768;23;20252;-76
2023/05/21 06:51:27;;;;;;;28.20;24.90;;;19.90;99.90;;;;;;5026116;28;20267;-76
2023/05/21 06:53:52;;;;;;;20.45;17.85;;;20.00;99.90;;;;;;5040268;28;20180;-76
2023/05/21 06:56:18;;;;;;;27.75;22.00;;;20.30;99.90;;;;;;5038269;28;20215;-75
2023/05/21 06:58:44;;;;;;;26.35;21.73;;;20.40;99.90;;;;;;5023805;28;20223;-76
2023/05/21 07:01:10;;;;;;;21.50;18.65;;;20.50;99.90;;;;;;5040577;28;20224;-75
2023/05/21 07:03:36;;;;;;;22.23;17.80;;;20.80;99.90;;;;;;5021352;28;20212;-76
2023/05/21 07:06:02;;;;;;;20.42;16.63;;;21.60;99.90;;;;;;5042838;28;20302;-76
2023/05/21 07:08:28;;;;;;;17.45;15.63;;;22.30;99.90;;;;;;5020299;28;20212;-76
2023/05/21 07:10:55;;;;;;;17.20;15.50;;;22.90;99.90;;;;;;5044193;28;20196;-76
2023/05/21 07:13:20;;;;;;;16.85;14.88;;;24.00;99.90;;;;;;5024568;28;20247;-76
2023/05/21 07:15:46;;;;;;;16.90;14.77;;;24.70;99.90;;;;;;5020675;28;20691;-76
2023/05/21 07:18:12;;;;;;;15.60;14.00;;;25.40;99.90;;;;;;5040363;28;20212;-76
2023/05/21 07:20:38;;;;;;;20.98;17.23;;;25.60;99.90;;;;;;5022788;28;20211;-76
2023/05/21 07:23:03;;;;;;;15.43;13.63;;;25.90;99.90;;;;;;5041182;28;20203;-76
2023/05/21 07:25:29;;;;;;;14.75;13.35;;;26.70;99.90;;;;;;5043183;28;20212;-76
2023/05/21 07:27:55;;;;;;;16.55;13.70;;;27.20;99.90;;;;;;5043663;28;20293;-77
2023/05/21 07:30:20;;;;;;;15.18;13.55;;;27.20;99.90;;;;;;5042413;28;20624;-77
2023/05/21 07:32:46;;;;;;;14.35;12.95;;;27.00;99.90;;;;;;5032499;28;20585;-77
2023/05/21 07:35:12;;;;;;;15.60;13.18;;;26.70;99.90;;;;;;5044430;28;20231;-76
2023/05/21 07:37:37;;;;;;;15.35;12.90;;;27.10;99.90;;;;;;5041764;28;20637;-76
2023/05/21 07:40:05;;;;;;;12.95;11.60;;;28.00;99.90;;;;;;5045247;28;20212;-77
2023/05/21 07:42:30;;;;;;;14.27;12.88;;;28.50;99.90;;;;;;5030513;28;20175;-77
2023/05/21 07:44:56;;;;;;;12.95;11.73;;;28.10;99.90;;;;;;5045854;28;20175;-76
2023/05/21 07:47:22;;;;;;;12.70;11.50;;;28.10;99.90;;;;;;5030790;28;20697;-76
2023/05/21 07:49:48;;;;;;;15.38;12.25;;;28.70;99.90;;;;;;5028938;28;20706;-77
2023/05/21 07:52:13;;;;;;;15.27;12.70;;;27.60;99.90;;;;;;5042100;28;20213;-76
2023/05/21 07:54:39;;;;;;;13.05;11.52;;;27.90;99.90;;;;;;5042821;28;20215;-76
2023/05/21 07:57:05;;;;;;;13.05;11.68;;;28.30;99.90;;;;;;5044689;28;20175;-77
2023/05/21 07:59:30;;;;;;;15.32;11.35;;;27.70;99.90;;;;;;5027839;28;20718;-76
2023/05/21 08:01:56;;;;;;;13.60;11.32;;;27.20;99.90;;;;;;5043336;28;20219;-76
2023/05/21 08:04:22;;;;;;;14.07;12.68;;;27.80;99.90;;;;;;5044133;28;20709;-76
2023/05/21 08:06:47;;;;;;;14.75;12.45;;;28.10;99.90;;;;;;5036031;28;20203;-76
2023/05/21 08:09:13;;;;;;;14.82;13.07;;;28.30;99.90;;;;;;5041251;28;20196;-77
2023/05/21 08:11:39;;;;;;;13.77;12.38;;;27.40;99.90;;;;;;5045050;28;20180;-76
2023/05/21 08:14:05;;;;;;;12.35;10.60;;;27.10;99.90;;;;;;5040526;28;20735;-77
2023/05/21 08:16:30;;;;;;;13.05;11.75;;;27.40;99.90;;;;;;5041976;28;20208;-76
2023/05/21 08:18:56;;;;;;;12.73;11.20;;;27.30;99.90;;;;;;5040547;28;20295;-76
2023/05/21 08:21:22;;;;;;;13.85;12.45;;;26.50;99.90;;;;;;5045437;28;20187;-76
2023/05/21 08:23:47;;;;;;;13.35;12.05;;;26.20;99.90;;;;;;5042637;28;20188;-76
2023/05/21 08:26:16;;;;;;;12.38;11.20;;;26.10;99.90;;;;;;5043152;28;20210;-75
2023/05/21 08:28:42;;;;;;;15.10;12.02;;;26.20;99.90;;;;;;5042690;28;20754;-76
2023/05/21 08:31:08;;;;;;;12.82;11.38;;;26.00;99.90;;;;;;5038411;28;20299;-76
2023/05/21 08:33:37;;;;;;;13.07;11.68;;;25.90;99.90;;;;;;5037939;28;20628;-75
2023/05/21 08:36:07;;;;;;;12.60;11.30;;;25.90;99.90;;;;;;5043844;28;20599;-76
2023/05/21 08:38:33;;;;;;;13.80;11.85;;;25.70;99.90;;;;;;5041557;28;20212;-76
2023/05/21 08:40:59;;;;;;;11.90;10.70;;;25.80;99.90;;;;;;5043224;28;20716;-76
2023/05/21 08:43:28;;;;;;;11.00;9.90;;;25.70;99.90;;;;;;5033221;28;20219;-75
2023/05/21 08:45:57;;;;;;;11.68;10.48;;;25.80;99.90;;;;;;5043232;28;20604;-76
2023/05/21 08:48:23;;;;;;;11.95;9.70;;;25.80;99.90;;;;;;5041619;28;20220;-76
2023/05/21 08:50:51;;;;;;;11.07;9.98;;;25.70;99.90;;;;;;5043405;28;20635;-75
2023/05/21 08:53:17;;;;;;;11.88;10.60;;;25.70;99.90;;;;;;5039484;28;20216;-75
2023/05/21 08:55:43;;;;;;;11.07;9.82;;;25.60;99.90;;;;;;5044853;28;20559;-75
2023/05/21 08:58:09;;;;;;;14.65;11.07;;;25.30;99.90;;;;;;5044171;28;20225;-76
2023/05/21 09:00:35;;;;;;;12.63;10.00;;;25.10;99.90;;;;;;5025097;28;20219;-77
2023/05/21 09:03:06;;;;;;;12.73;10.00;;;25.40;99.90;;;;;;5037358;28;20583;-77
2023/05/21 09:05:37;;;;;;;11.07;10.07;;;25.30;99.90;;;;;;5023852;28;20212;-77
2023/05/21 09:08:16;;;;;;;11.95;9.70;;;25.20;99.90;;;;;;5044994;28;20274;-78
2023/05/21 09:10:50;;;;;;;11.57;9.98;;;25.20;99.90;;;;;;5041863;28;20725;-78
2023/05/21 09:13:17;;;;;;;12.50;10.25;;;25.30;99.90;;;;;;5028307;28;20303;-76
2023/05/21 09:15:44;;;;;;;14.38;10.38;;;25.30;99.90;;;;;;5046047;28;20211;-77
2023/05/21 09:18:09;;;;;;;10.50;9.40;;;25.00;99.90;;;;;;5029795;28;20195;-77
2023/05/21 09:20:35;;;;;;;11.07;9.52;;;24.90;99.90;;;;;;5028570;28;20298;-77
2023/05/21 09:23:11;;;;;;;12.38;11.00;;;24.70;99.90;;;;;;5042565;28;20211;-77
2023/05/21 09:25:37;;;;;;;11.75;9.82;;;24.60;99.90;;;;;;5046876;28;20257;-77
2023/05/21 09:28:10;;;;;;;12.05;10.07;;;25.00;99.90;;;;;;5040758;28;20899;-78
2023/05/21 09:30:35;;;;;;;11.05;9.52;;;25.30;99.90;;;;;;5042289;28;20211;-77
2023/05/21 09:33:02;;;;;;;11.55;10.32;;;25.50;99.90;;;;;;5033052;28;20566;-78
2023/05/21 09:35:27;;;;;;;13.50;9.73;;;25.40;99.90;;;;;;5027528;28;20624;-77
2023/05/21 09:37:56;;;;;;;10.70;9.50;;;25.50;99.90;;;;;;5040950;28;20200;-77
2023/05/21 09:40:22;;;;;;;12.77;9.43;;;25.40;99.90;;;;;;5044459;28;20215;-77
2023/05/21 09:42:49;;;;;;;13.98;10.90;;;25.30;99.90;;;;;;5040876;28;20588;-78
2023/05/21 09:45:21;;;;;;;12.43;10.38;;;25.10;99.90;;;;;;5025535;28;20677;-77
2023/05/21 09:47:48;;;;;;;13.75;10.18;;;25.10;99.90;;;;;;5037504;28;20168;-77
2023/05/21 09:50:17;;;;;;;11.25;8.82;;;25.20;99.90;;;;;;5042066;28;20211;-77
2023/05/21 09:52:43;;;;;;;9.65;8.45;;;25.20;99.90;;;;;;5038830;28;20208;-77
2023/05/21 09:55:13;;;;;;;11.10;8.93;;;25.30;99.90;;;;;;5041270;28;20207;-77
2023/05/21 09:57:48;;;;;;;14.70;9.23;;;25.40;99.90;;;;;;5042175;28;20208;-77
2023/05/21 10:00:26;;;;;;;10.40;8.77;;;25.60;99.90;;;;;;5043135;28;20214;-75
2023/05/21 10:02:56;;;;;;;9.30;8.27;;;25.60;99.90;;;;;;5026156;28;20271;-78
2023/05/21 10:05:27;;;;;;;12.40;8.63;;;25.40;99.90;;;;;;5042268;28;20205;-77
2023/05/21 10:08:00;;;;;;;9.18;8.25;;;25.50;99.90;;;;;;5042041;28;20626;-78
2023/05/21 10:10:28;;;;;;;10.32;8.02;;;25.60;99.90;;;;;;5043864;28;20207;-77
2023/05/21 10:13:07;;;;;;;9.82;8.15;;;25.80;99.90;;;;;;5045735;28;20206;-75
2023/05/21 10:15:58;;;;;;;9.75;7.60;;;25.70;99.90;;;;;;5043301;28;20212;-77
2023/05/21 10:18:24;;;;;;;13.38;9.65;;;25.80;99.90;;;;;;5042670;28;20748;-77
2023/05/21 10:20:50;;;;;;;14.05;8.55;;;25.80;99.90;;;;;;5040806;28;20200;-77
2023/05/21 10:23:17;;;;;;;9.50;8.50;;;25.80;99.90;;;;;;5032924;28;20230;-77
2023/05/21 10:25:44;;;;;;;9.35;8.15;;;25.80;99.90;;;;;;5041418;28;20274;-77
2023/05/21 10:28:14;;;;;;;9.45;7.93;;;25.90;99.90;;;;;;5036310;28;20204;-77
2023/05/21 10:30:41;;;;;;;10.55;8.10;;;26.10;99.90;;;;;;5040438;28;20196;-78
2023/05/21 10:33:08;;;;;;;11.88;8.20;;;26.20;99.90;;;;;;5041509;28;20200;-77
2023/05/21 10:35:34;;;;;;;10.15;8.27;;;26.10;99.90;;;;;;5040726;28;20208;-77
2023/05/21 10:38:03;;;;;;;9.63;7.63;;;26.10;99.90;;;;;;5039865;28;20295;-77
2023/05/21 10:40:29;;;;;;;10.25;7.97;;;26.20;99.90;;;;;;5025575;28;20216;-78
2023/05/21 10:43:41;;;;;;;9.68;8.38;;;26.00;99.90;;;;;;5042149;28;20599;-76
2023/05/21 10:46:22;;;;;;;8.98;7.43;;;25.80;99.90;;;;;;5038434;28;20212;-78
2023/05/21 10:49:15;;;;;;;9.75;7.93;;;26.00;99.90;;;;;;5042231;28;20264;-78
2023/05/21 10:51:43;;;;;;;12.13;7.97;;;25.90;99.90;;;;;;5046266;28;20294;-77
2023/05/21 10:54:36;;;;;;;10.88;8.05;;;25.90;99.90;;;;;;5045778;28;20334;-77
2023/05/21 10:57:39;;;;;;;12.13;7.93;;;25.70;99.90;;;;;;5042652;28;20211;-78
2023/05/21 11:00:06;;;;;;;9.82;7.72;;;25.70;99.90;;;;;;5041953;28;20246;-78
2023/05/21 11:02:33;;;;;;;9.55;8.00;;;25.50;99.90;;;;;;5038107;28;20212;-78
2023/05/21 11:05:03;;;;;;;10.35;7.65;;;25.60;99.90;;;;;;5042039;28;20295;-78
2023/05/21 11:08:00;;;;;;;10.40;7.53;;;25.50;99.90;;;;;;5022039;28;20259;-77
2023/05/21 11:10:39;;;;;;;13.32;7.78;;;25.50;99.90;;;;;;5026998;28;20216;-77
2023/05/21 11:13:12;;;;;;;8.75;7.30;;;25.50;99.90;;;;;;5043603;28;20678;-78
2023/05/21 11:15:56;;;;;;;10.65;7.05;;;25.60;99.90;;;;;;5040985;28;20586;-77
2023/05/21 11:18:23;;;;;;;8.32;6.90;;;25.90;99.90;;;;;;5033512;28;20246;-75
2023/05/21 11:20:51;;;;;;;9.80;7.22;;;26.00;99.90;;;;;;5025594;28;20180;-77
2023/05/21 11:23:20;;;;;;;12.52;7.05;;;26.10;99.90;;;;;;5037985;28;20303;-78
2023/05/21 11:26:01;;;;;;;8.75;7.85;;;26.20;99.90;;;;;;5029114;28;20200;-77
2023/05/21 11:28:33;;;;;;;9.00;6.72;;;26.30;99.90;;;;;;5040801;28;20721;-77
2023/05/21 11:31:24;;;;;;;6.78;6.05;;;26.30;99.90;;;;;;5022420;28;20764;-78
2023/05/21 11:34:13;;;;;;;10.52;7.57;;;26.30;99.90;;;;;;5021771;28;20210;-77
2023/05/21 11:36:44;;;;;;;9.23;6.00;;;26.50;99.90;;;;;;5034135;28;20212;-77
2023/05/21 11:39:16;;;;;;;7.65;6.78;;;26.70;99.90;;;;;;5027705;28;20206;-78
2023/05/21 11:41:58;;;;;;;9.75;6.32;;;26.60;99.90;;;;;;5025822;28;20219;-78
2023/05/21 11:44:43;;;;;;;7.20;6.50;;;26.70;99.90;;;;;;5025804;28;20214;-76
2023/05/21 11:47:20;;;;;;;9.73;6.63;;;26.60;99.90;;;;;;5043196;28;20300;-76
2023/05/21 11:49:46;;;;;;;7.43;6.72;;;26.50;99.90;;;;;;5038894;28;20290;-76
2023/05/21 11:52:12;;;;;;;7.97;6.38;;;26.80;99.90;;;;;;5038487;28;20222;-77
2023/05/21 11:54:45;;;;;;;9.10;6.00;;;26.80;99.90;;;;;;5038111;28;20204;-76
2023/05/21 11:57:15;;;;;;;7.80;6.35;;;26.80;99.90;;;;;;5043724;28;20552;-77
2023/05/21 11:59:41;;;;;;;7.95;7.07;;;26.60;99.90;;;;;;5029871;28;20344;-77
2023/05/21 12:02:07;;;;;;;7.05;6.35;;;26.70;99.90;;;;;;5028413;28;20244;-76
2023/05/21 12:04:37;;;;;;;5.95;5.35;;;26.80;99.90;;;;;;5030085;28;20200;-77
2023/05/21 12:07:06;;;;;;;10.75;6.80;;;26.70;99.90;;;;;;5029091;28;20227;-76
2023/05/21 12:09:59;;;;;;;8.50;6.20;;;26.50;99.90;;;;;;5040467;28;20207;-76
2023/05/21 12:12:25;;;;;;;7.13;6.43;;;26.60;99.90;;;;;;5039273;28;20191;-77
2023/05/21 12:14:53;;;;;;;7.93;5.72;;;26.70;99.90;;;;;;5030788;28;20267;-76
2023/05/21 12:17:26;;;;;;;7.65;6.18;;;26.60;99.90;;;;;;5026550;28;20235;-77
2023/05/21 12:19:55;;;;;;;7.32;6.05;;;26.70;99.90;;;;;;5035700;28;20212;-76
2023/05/21 12:22:23;;;;;;;8.13;6.47;;;26.70;99.90;;;;;;5042263;28;20218;-77
2023/05/21 12:24:49;;;;;;;9.20;6.93;;;26.80;99.90;;;;;;5044119;28;20199;-77
2023/05/21 12:27:17;;;;;;;8.05;5.30;;;26.70;99.90;;;;;;5043368;28;20658;-76
2023/05/21 12:29:44;;;;;;;7.05;6.25;;;26.60;99.90;;;;;;5039428;28;20227;-76
2023/05/21 12:32:12;;;;;;;7.03;6.10;;;26.60;99.90;;;;;;5039906;28;20213;-76
2023/05/21 12:34:51;;;;;;;6.38;5.72;;;26.60;99.90;;;;;;5045706;28;20726;-76
2023/05/21 12:37:31;;;;;;;8.15;6.45;;;26.60;99.90;;;;;;5042015;28;20298;-76